createdAt,value
2019-04-04T00:00:43.065Z,81.13
2019-04-04T00:05:45.649Z,88.20
2019-04-04T00:10:49.074Z,81.07
2019-04-04T00:15:52.076Z,79.70
2019-04-04T00:20:55.724Z,93.03
2019-04-04T00:25:59.100Z,88.27
2019-04-04T00:31:02.729Z,86.73
2019-04-04T00:36:06.221Z,96.60
2019-04-04T00:41:09.227Z,94.07
2019-04-04T00:46:12.160Z,99.30
2019-04-04T00:51:14.503Z,93.47
2019-04-04T00:56:18.087Z,103.03
2019-04-04T01:01:21.216Z,96.00
2019-04-04T01:06:24.161Z,86.93
2019-04-04T01:11:27.786Z,89.07
2019-04-04T01:16:33.407Z,86.10
2019-04-04T01:21:35.545Z,78.67
2019-04-04T01:26:38.850Z,82.23
2019-04-04T01:31:44.079Z,98.37
2019-04-04T01:36:47.143Z,73.70
2019-04-04T01:41:50.425Z,70.43
2019-04-04T01:46:53.635Z,72.70
2019-04-04T01:51:57.884Z,78.93
2019-04-04T01:57:00.727Z,83.93
2019-04-04T02:02:03.816Z,86.03
2019-04-04T02:07:06.875Z,86.90
2019-04-04T02:12:10.078Z,84.63
2019-04-04T02:17:13.599Z,84.00
2019-04-04T02:22:16.501Z,82.60
2019-04-04T02:27:20.036Z,74.57
2019-04-04T02:32:26.076Z,83.20
2019-04-04T02:37:28.030Z,81.80
2019-04-04T02:42:31.192Z,81.30
2019-04-04T02:47:36.459Z,85.03
2019-04-04T02:52:39.641Z,88.70
2019-04-04T02:57:42.886Z,80.77
2019-04-04T03:02:45.784Z,91.77
2019-04-04T03:07:48.979Z,85.83
2019-04-04T03:12:51.484Z,83.77
2019-04-04T03:17:54.987Z,81.23
2019-04-04T03:23:00.589Z,83.30
2019-04-04T03:28:04.935Z,83.63
2019-04-04T03:33:08.489Z,90.60
2019-04-04T03:38:13.486Z,87.60
2019-04-04T03:43:16.837Z,80.67
2019-04-04T03:48:20.292Z,91.37
2019-04-04T03:53:24.088Z,91.87
2019-04-04T03:58:27.891Z,88.23
2019-04-04T04:03:31.075Z,90.70
2019-04-04T04:08:34.279Z,97.73
2019-04-04T04:13:37.577Z,95.70
2019-04-04T04:18:41.084Z,94.63
2019-04-04T04:23:44.705Z,98.20
2019-04-04T04:28:52.200Z,98.37
2019-04-04T04:33:53.140Z,88.80
2019-04-04T04:38:59.895Z,92.10
2019-04-04T04:44:05.099Z,112.57
2019-04-04T04:49:06.787Z,98.03
2019-04-04T04:54:09.710Z,87.93
2019-04-04T04:59:13.231Z,94.13
2019-04-04T05:04:17.552Z,97.80
2019-04-04T05:09:20.105Z,93.33
2019-04-04T05:14:23.368Z,81.47
2019-04-04T05:19:26.373Z,91.63
2019-04-04T05:24:29.894Z,88.37
2019-04-04T05:29:33.072Z,80.17
2019-04-04T05:34:36.395Z,94.13
2019-04-04T05:39:41.821Z,89.10
2019-04-04T05:44:45.206Z,86.57
2019-04-04T05:49:48.901Z,85.73
2019-04-04T05:54:52.492Z,79.87
2019-04-04T05:59:57.221Z,89.97
2019-04-04T06:05:00.510Z,84.60
2019-04-04T06:10:04.465Z,79.70
2019-04-04T06:15:07.608Z,80.60
2019-04-04T06:20:10.114Z,84.40
2019-04-04T06:25:13.038Z,97.60
2019-04-04T06:30:16.145Z,91.00
2019-04-04T06:35:19.647Z,88.97
2019-04-04T06:40:22.653Z,82.43
2019-04-04T06:45:25.526Z,91.90
2019-04-04T06:50:28.432Z,84.23
2019-04-04T06:55:31.459Z,74.97
2019-04-04T07:00:34.897Z,82.43
2019-04-04T07:05:38.931Z,76.43
2019-04-04T07:10:42.171Z,80.10
2019-04-04T07:15:46.961Z,64.90
2019-04-04T07:20:50.489Z,69.83
2019-04-04T07:25:56.486Z,58.93
2019-04-04T07:31:01.734Z,59.73
2019-04-04T07:36:05.226Z,51.53
2019-04-04T07:41:08.970Z,56.27
2019-04-04T07:46:16.847Z,48.70
2019-04-04T07:51:17.093Z,50.07
2019-04-04T07:56:20.424Z,44.50
2019-04-04T08:01:23.660Z,43.37
2019-04-04T08:06:26.966Z,47.30
2019-04-04T08:11:29.964Z,49.30
2019-04-04T08:16:33.271Z,53.10
2019-04-04T08:21:36.171Z,38.77
2019-04-04T08:26:39.079Z,34.10
2019-04-04T08:31:42.750Z,39.07
2019-04-04T08:36:46.305Z,35.80
2019-04-04T08:41:52.256Z,38.33
2019-04-04T08:46:55.790Z,35.47
2019-04-04T08:51:59.092Z,30.07
2019-04-04T08:57:02.108Z,33.53
2019-04-04T09:02:05.436Z,32.47
2019-04-04T09:07:08.929Z,39.17
2019-04-04T09:12:12.355Z,32.43
2019-04-04T09:17:15.751Z,38.63
2019-04-04T09:22:18.985Z,34.43
2019-04-04T09:27:22.018Z,40.70
2019-04-04T09:32:24.598Z,42.13
2019-04-04T09:37:28.462Z,39.20
2019-04-04T09:42:32.715Z,46.70
2019-04-04T09:47:36.014Z,51.30
2019-04-04T09:52:39.292Z,50.30
2019-04-04T09:57:42.262Z,55.93
2019-04-04T10:02:45.269Z,54.73
2019-04-04T10:07:48.839Z,65.50
2019-04-04T10:12:52.242Z,57.90
2019-04-04T10:17:55.541Z,64.73
2019-04-04T10:22:59.045Z,56.67
2019-04-04T10:28:02.359Z,49.67
2019-04-04T10:33:05.883Z,55.57
2019-04-04T10:38:09.085Z,58.60
2019-04-04T10:43:12.088Z,62.63
2019-04-04T10:48:15.306Z,54.60
2019-04-04T10:53:18.873Z,51.73
2019-04-04T10:58:22.415Z,62.10
2019-04-04T11:03:25.979Z,59.90
2019-04-04T11:08:29.569Z,59.83
2019-04-04T11:13:34.031Z,56.30
2019-04-04T11:18:37.064Z,66.60
2019-04-04T11:23:39.926Z,64.37
2019-04-04T11:28:43.480Z,65.20
2019-04-04T11:33:46.750Z,68.17
2019-04-04T11:38:49.579Z,58.20
2019-04-04T11:43:52.761Z,63.27
2019-04-04T11:48:55.996Z,60.10
2019-04-04T11:53:58.558Z,73.40
2019-04-04T11:59:01.784Z,65.00
2019-04-04T12:04:05.222Z,65.90
2019-04-04T12:09:08.448Z,68.43
2019-04-04T12:14:11.459Z,69.47
2019-04-04T12:19:14.728Z,83.13
2019-04-04T12:24:17.836Z,71.37
2019-04-04T12:29:21.070Z,70.43
2019-04-04T12:34:23.808Z,83.70
2019-04-04T12:39:27.097Z,88.87
2019-04-04T12:44:32.457Z,73.83
2019-04-04T12:49:35.578Z,90.77
2019-04-04T12:54:38.845Z,84.13
2019-04-04T12:59:42.024Z,98.73
2019-04-04T13:04:45.540Z,84.97
2019-04-04T13:09:49.221Z,86.40
2019-04-04T13:14:52.191Z,81.93
2019-04-04T13:19:55.095Z,78.87
2019-04-04T13:24:57.963Z,84.87
2019-04-04T13:30:01.200Z,85.03
2019-04-04T13:35:05.732Z,87.80
2019-04-04T13:40:09.265Z,81.43
2019-04-04T13:45:12.579Z,80.90
2019-04-04T13:50:19.673Z,82.97
2019-04-04T13:55:22.004Z,71.70
2019-04-04T14:00:25.513Z,70.47
2019-04-04T14:05:29.160Z,86.33
2019-04-04T14:10:32.427Z,62.90
2019-04-04T14:15:35.666Z,76.10
2019-04-04T14:20:39.048Z,76.10
2019-04-04T14:25:42.291Z,72.07
2019-04-04T14:30:45.904Z,82.87
2019-04-04T14:35:49.380Z,76.90
2019-04-04T14:40:52.294Z,81.77
2019-04-04T14:45:55.785Z,72.27
2019-04-04T14:50:58.943Z,76.67
2019-04-04T14:56:02.012Z,79.57
2019-04-04T15:01:04.979Z,75.73
2019-04-04T15:06:08.598Z,70.23
2019-04-04T15:11:23.546Z,84.60
2019-04-04T15:16:17.578Z,72.27
2019-04-04T15:21:20.924Z,74.37
2019-04-04T15:26:24.061Z,69.73
2019-04-04T15:31:26.957Z,73.17
2019-04-04T15:36:29.920Z,75.87
2019-04-04T15:41:37.103Z,81.13
2019-04-04T15:46:37.690Z,65.50
2019-04-04T15:51:40.907Z,66.60
2019-04-04T15:56:44.162Z,65.80
2019-04-04T16:01:47.431Z,70.43
2019-04-04T16:06:50.028Z,79.03
2019-04-04T16:11:53.573Z,73.70
2019-04-04T16:16:56.965Z,76.67
2019-04-04T16:22:00.276Z,76.77
2019-04-04T16:27:03.678Z,84.30
2019-04-04T16:32:06.999Z,69.43
2019-04-04T16:37:10.206Z,77.00
2019-04-04T16:42:13.441Z,73.67
2019-04-04T16:47:16.629Z,78.30
2019-04-04T16:52:19.504Z,80.40
2019-04-04T16:57:23.167Z,74.17
2019-04-04T17:02:27.554Z,72.97
2019-04-04T17:07:30.511Z,68.63
2019-04-04T17:12:33.839Z,62.33
2019-04-04T17:17:37.126Z,67.93
2019-04-04T17:22:40.339Z,62.10
2019-04-04T17:27:43.848Z,75.10
2019-04-04T17:32:48.872Z,67.90
2019-04-04T17:37:54.122Z,62.37
2019-04-04T17:42:58.838Z,81.87
2019-04-04T17:48:02.667Z,67.57
2019-04-04T17:53:06.983Z,65.70
2019-04-04T17:58:12.838Z,63.80
2019-04-04T18:03:16.416Z,58.30
2019-04-04T18:08:20.446Z,65.83
2019-04-04T18:13:24.300Z,56.80
2019-04-04T18:18:27.477Z,68.33
2019-04-04T18:23:33.606Z,61.00
2019-04-04T18:28:41.331Z,66.90
2019-04-04T18:33:47.291Z,51.83
2019-04-04T18:38:53.848Z,54.40
2019-04-04T18:43:56.889Z,82.30
2019-04-04T18:49:00.467Z,61.37
2019-04-04T18:54:09.675Z,54.33
2019-04-04T18:59:12.307Z,67.87
2019-04-04T19:04:16.241Z,60.60
2019-04-04T19:09:27.066Z,62.90
2019-04-04T19:14:30.904Z,78.63
2019-04-04T19:19:34.168Z,62.70
2019-04-04T19:24:58.550Z,63.63
2019-04-04T19:30:01.950Z,62.13
2019-04-04T19:35:08.060Z,66.00
2019-04-04T19:40:13.939Z,90.43
2019-04-04T19:45:17.080Z,82.60
2019-04-04T19:50:20.375Z,74.90
2019-04-04T19:55:23.446Z,77.80
2019-04-04T20:00:26.872Z,94.13
2019-04-04T20:05:31.521Z,76.87
2019-04-04T20:10:35.337Z,93.33
2019-04-04T20:15:46.099Z,89.07
2019-04-04T20:20:50.291Z,81.50
2019-04-04T20:25:53.647Z,130.40
2019-04-04T20:30:57.037Z,89.10
2019-04-04T20:36:00.404Z,76.13
2019-04-04T20:41:03.026Z,88.10
2019-04-04T20:46:06.799Z,88.53
2019-04-04T20:51:11.729Z,76.27
2019-04-04T20:56:15.029Z,83.60
2019-04-04T21:01:18.338Z,86.40
2019-04-04T21:06:21.403Z,92.93
2019-04-04T21:11:24.291Z,96.80
2019-04-04T21:16:27.781Z,82.17
2019-04-04T21:21:31.041Z,88.80
2019-04-04T21:26:34.393Z,79.17
2019-04-04T21:31:37.706Z,80.30
2019-04-04T21:36:41.021Z,88.33
2019-04-04T21:41:44.025Z,89.30
2019-04-04T21:46:47.553Z,82.30
2019-04-04T21:51:50.762Z,84.90
2019-04-04T21:56:54.279Z,83.13
2019-04-04T22:01:57.926Z,80.87
2019-04-04T22:07:01.221Z,81.70
2019-04-04T22:12:04.638Z,92.80
2019-04-04T22:17:07.240Z,81.73
2019-04-04T22:22:10.456Z,81.63
2019-04-04T22:27:14.081Z,82.13
2019-04-04T22:32:17.686Z,88.03
2019-04-04T22:37:20.378Z,78.47
2019-04-04T22:42:23.581Z,72.43
2019-04-04T22:47:26.900Z,85.63
2019-04-04T22:52:30.430Z,84.50
2019-04-04T22:57:33.922Z,84.20
2019-04-04T23:02:36.910Z,69.67
2019-04-04T23:07:40.564Z,83.83
2019-04-04T23:12:43.769Z,78.00
2019-04-04T23:17:47.437Z,66.03
2019-04-04T23:22:52.934Z,63.20
2019-04-04T23:27:55.560Z,64.73
2019-04-04T23:32:58.781Z,64.90
2019-04-04T23:38:02.069Z,81.07
2019-04-04T23:43:05.034Z,61.00
2019-04-04T23:48:08.067Z,68.00
2019-04-04T23:53:11.391Z,69.13
2019-04-04T23:58:14.708Z,75.87
